sensor_id;sensor_type;location;lat;lon;timestamp;P1;durP1;ratioP1;P2;durP2;ratioP2
22160;SDS011;49035;48.812;11.762;2023-03-14T00:01:21;1.13;;;0.70;;
22160;SDS011;49035;48.812;11.762;2023-03-14T00:03:47;0.68;;;0.55;;
22160;SDS011;49035;48.812;11.762;2023-03-14T00:06:13;1.67;;;0.80;;
22160;SDS011;49035;48.812;11.762;2023-03-14T00:08:40;2.47;;;0.77;;
22160;SDS011;49035;48.812;11.762;2023-03-14T00:11:07;0.60;;;0.60;;
22160;SDS011;49035;48.812;11.762;2023-03-14T00:13:34;0.70;;;0.65;;
22160;SDS011;49035;48.812;11.762;2023-03-14T00:16:07;1.00;;;0.80;;
22160;SDS011;49035;48.812;11.762;2023-03-14T00:18:35;0.83;;;0.80;;
22160;SDS011;49035;48.812;11.762;2023-03-14T00:21:01;2.95;;;0.90;;
22160;SDS011;49035;48.812;11.762;2023-03-14T00:23:28;1.10;;;0.90;;
22160;SDS011;49035;48.812;11.762;2023-03-14T00:26:03;0.70;;;0.60;;
22160;SDS011;49035;48.812;11.762;2023-03-14T00:28:30;0.85;;;0.85;;
22160;SDS011;49035;48.812;11.762;2023-03-14T00:30:56;0.83;;;0.77;;
22160;SDS011;49035;48.812;11.762;2023-03-14T00:33:22;2.27;;;0.87;;
22160;SDS011;49035;48.812;11.762;2023-03-14T00:35:52;1.55;;;1.30;;
22160;SDS011;49035;48.812;11.762;2023-03-14T00:38:22;0.77;;;0.77;;
22160;SDS011;49035;48.812;11.762;2023-03-14T00:40:49;1.87;;;1.10;;
22160;SDS011;49035;48.812;11.762;2023-03-14T00:43:15;1.37;;;0.97;;
22160;SDS011;49035;48.812;11.762;2023-03-14T00:45:41;3.20;;;0.95;;
22160;SDS011;49035;48.812;11.762;2023-03-14T00:48:07;2.90;;;0.90;;
22160;SDS011;49035;48.812;11.762;2023-03-14T00:50:32;0.77;;;0.70;;
22160;SDS011;49035;48.812;11.762;2023-03-14T00:52:58;1.47;;;0.70;;
22160;SDS011;49035;48.812;11.762;2023-03-14T00:55:23;1.97;;;0.70;;
22160;SDS011;49035;48.812;11.762;2023-03-14T00:57:49;1.53;;;0.87;;
22160;SDS011;49035;48.812;11.762;2023-03-14T01:00:15;1.73;;;0.77;;
22160;SDS011;49035;48.812;11.762;2023-03-14T01:02:40;1.92;;;0.88;;
22160;SDS011;49035;48.812;11.762;2023-03-14T01:05:06;1.65;;;0.80;;
22160;SDS011;49035;48.812;11.762;2023-03-14T01:07:32;1.13;;;0.70;;
22160;SDS011;49035;48.812;11.762;2023-03-14T01:09:58;0.70;;;0.70;;
22160;SDS011;49035;48.812;11.762;2023-03-14T01:12:23;0.90;;;0.60;;
22160;SDS011;49035;48.812;11.762;2023-03-14T01:14:49;0.70;;;0.70;;
22160;SDS011;49035;48.812;11.762;2023-03-14T01:17:14;1.95;;;0.95;;
22160;SDS011;49035;48.812;11.762;2023-03-14T01:19:40;1.07;;;0.60;;
22160;SDS011;49035;48.812;11.762;2023-03-14T01:22:06;3.33;;;0.80;;
22160;SDS011;49035;48.812;11.762;2023-03-14T01:24:31;0.63;;;0.63;;
22160;SDS011;49035;48.812;11.762;2023-03-14T01:26:57;2.00;;;0.60;;
22160;SDS011;49035;48.812;11.762;2023-03-14T01:29:22;1.03;;;0.67;;
22160;SDS011;49035;48.812;11.762;2023-03-14T01:31:48;0.55;;;0.50;;
22160;SDS011;49035;48.812;11.762;2023-03-14T01:34:13;4.23;;;0.50;;
22160;SDS011;49035;48.812;11.762;2023-03-14T01:36:39;0.63;;;0.50;;
22160;SDS011;49035;48.812;11.762;2023-03-14T01:39:04;0.80;;;0.40;;
22160;SDS011;49035;48.812;11.762;2023-03-14T01:41:31;1.33;;;0.57;;
22160;SDS011;49035;48.812;11.762;2023-03-14T01:43:57;0.37;;;0.33;;
22160;SDS011;49035;48.812;11.762;2023-03-14T01:46:32;2.10;;;0.40;;
22160;SDS011;49035;48.812;11.762;2023-03-14T01:51:41;1.27;;;0.50;;
22160;SDS011;49035;48.812;11.762;2023-03-14T01:59:57;0.57;;;0.47;;
22160;SDS011;49035;48.812;11.762;2023-03-14T02:02:26;0.93;;;0.30;;
22160;SDS011;49035;48.812;11.762;2023-03-14T02:04:53;2.17;;;0.40;;
22160;SDS011;49035;48.812;11.762;2023-03-14T02:07:25;2.07;;;0.40;;
22160;SDS011;49035;48.812;11.762;2023-03-14T02:10:01;2.87;;;0.50;;
22160;SDS011;49035;48.812;11.762;2023-03-14T02:12:28;0.80;;;0.40;;
22160;SDS011;49035;48.812;11.762;2023-03-14T02:14:55;1.10;;;0.60;;
22160;SDS011;49035;48.812;11.762;2023-03-14T02:17:20;0.77;;;0.40;;
22160;SDS011;49035;48.812;11.762;2023-03-14T02:22:37;1.03;;;0.50;;
22160;SDS011;49035;48.812;11.762;2023-03-14T02:27:30;0.80;;;0.60;;
22160;SDS011;49035;48.812;11.762;2023-03-14T02:30:00;3.20;;;0.60;;
22160;SDS011;49035;48.812;11.762;2023-03-14T02:32:30;0.40;;;0.40;;
22160;SDS011;49035;48.812;11.762;2023-03-14T02:34:58;0.60;;;0.60;;
22160;SDS011;49035;48.812;11.762;2023-03-14T02:37:46;0.40;;;0.40;;
22160;SDS011;49035;48.812;11.762;2023-03-14T02:40:18;1.80;;;0.50;;
22160;SDS011;49035;48.812;11.762;2023-03-14T02:42:44;0.70;;;0.40;;
22160;SDS011;49035;48.812;11.762;2023-03-14T02:47:36;0.47;;;0.47;;
22160;SDS011;49035;48.812;11.762;2023-03-14T02:50:17;1.50;;;0.50;;
22160;SDS011;49035;48.812;11.762;2023-03-14T02:52:47;0.67;;;0.50;;
22160;SDS011;49035;48.812;11.762;2023-03-14T02:55:13;1.27;;;0.50;;
22160;SDS011;49035;48.812;11.762;2023-03-14T02:57:39;1.27;;;0.47;;
22160;SDS011;49035;48.812;11.762;2023-03-14T03:00:05;2.27;;;0.70;;
22160;SDS011;49035;48.812;11.762;2023-03-14T03:02:31;0.30;;;0.30;;
22160;SDS011;49035;48.812;11.762;2023-03-14T03:04:57;1.30;;;0.40;;
22160;SDS011;49035;48.812;11.762;2023-03-14T03:07:23;0.97;;;0.40;;
22160;SDS011;49035;48.812;11.762;2023-03-14T03:09:49;1.93;;;0.47;;
22160;SDS011;49035;48.812;11.762;2023-03-14T03:12:14;0.30;;;0.30;;
22160;SDS011;49035;48.812;11.762;2023-03-14T03:14:40;1.70;;;0.40;;
22160;SDS011;49035;48.812;11.762;2023-03-14T03:17:05;0.40;;;0.30;;
22160;SDS011;49035;48.812;11.762;2023-03-14T03:19:31;1.50;;;0.50;;
22160;SDS011;49035;48.812;11.762;2023-03-14T03:21:57;0.33;;;0.30;;
22160;SDS011;49035;48.812;11.762;2023-03-14T03:24:24;0.47;;;0.40;;
22160;SDS011;49035;48.812;11.762;2023-03-14T03:26:49;0.60;;;0.33;;
22160;SDS011;49035;48.812;11.762;2023-03-14T03:29:15;0.50;;;0.40;;
22160;SDS011;49035;48.812;11.762;2023-03-14T03:31:41;0.47;;;0.47;;
22160;SDS011;49035;48.812;11.762;2023-03-14T03:34:06;1.50;;;0.53;;
22160;SDS011;49035;48.812;11.762;2023-03-14T03:36:32;0.40;;;0.40;;
22160;SDS011;49035;48.812;11.762;2023-03-14T03:38:58;0.40;;;0.40;;
22160;SDS011;49035;48.812;11.762;2023-03-14T03:41:24;1.80;;;0.40;;
22160;SDS011;49035;48.812;11.762;2023-03-14T03:43:50;0.30;;;0.30;;
22160;SDS011;49035;48.812;11.762;2023-03-14T03:46:15;0.40;;;0.40;;
22160;SDS011;49035;48.812;11.762;2023-03-14T03:48:41;0.50;;;0.40;;
22160;SDS011;49035;48.812;11.762;2023-03-14T03:51:07;1.23;;;0.40;;
22160;SDS011;49035;48.812;11.762;2023-03-14T03:53:36;0.40;;;0.40;;
22160;SDS011;49035;48.812;11.762;2023-03-14T03:56:02;0.40;;;0.40;;
22160;SDS011;49035;48.812;11.762;2023-03-14T03:58:28;0.57;;;0.57;;
22160;SDS011;49035;48.812;11.762;2023-03-14T04:00:53;0.73;;;0.60;;
22160;SDS011;49035;48.812;11.762;2023-03-14T04:03:19;0.40;;;0.40;;
22160;SDS011;49035;48.812;11.762;2023-03-14T04:05:45;0.50;;;0.50;;
22160;SDS011;49035;48.812;11.762;2023-03-14T04:08:10;1.40;;;0.50;;
22160;SDS011;49035;48.812;11.762;2023-03-14T04:10:36;0.47;;;0.47;;
22160;SDS011;49035;48.812;11.762;2023-03-14T04:13:01;0.50;;;0.50;;
22160;SDS011;49035;48.812;11.762;2023-03-14T04:15:27;1.80;;;1.10;;
22160;SDS011;49035;48.812;11.762;2023-03-14T04:17:56;2.47;;;0.90;;
22160;SDS011;49035;48.812;11.762;2023-03-14T04:20:23;3.27;;;1.77;;
22160;SDS011;49035;48.812;11.762;2023-03-14T04:22:49;3.73;;;1.43;;
22160;SDS011;49035;48.812;11.762;2023-03-14T04:25:14;1.70;;;1.20;;
22160;SDS011;49035;48.812;11.762;2023-03-14T04:27:42;1.83;;;1.23;;
22160;SDS011;49035;48.812;11.762;2023-03-14T04:30:08;2.10;;;1.00;;
22160;SDS011;49035;48.812;11.762;2023-03-14T04:32:34;2.83;;;1.40;;
22160;SDS011;49035;48.812;11.762;2023-03-14T04:34:59;1.80;;;1.03;;
22160;SDS011;49035;48.812;11.762;2023-03-14T04:37:25;2.80;;;0.90;;
22160;SDS011;49035;48.812;11.762;2023-03-14T04:39:50;1.63;;;0.80;;
22160;SDS011;49035;48.812;11.762;2023-03-14T04:42:16;3.00;;;0.93;;
22160;SDS011;49035;48.812;11.762;2023-03-14T04:44:41;1.63;;;1.50;;
22160;SDS011;49035;48.812;11.762;2023-03-14T04:47:08;1.73;;;1.37;;
22160;SDS011;49035;48.812;11.762;2023-03-14T04:49:33;2.07;;;1.27;;
22160;SDS011;49035;48.812;11.762;2023-03-14T04:51:59;1.10;;;1.00;;
22160;SDS011;49035;48.812;11.762;2023-03-14T04:54:24;0.80;;;0.80;;
22160;SDS011;49035;48.812;11.762;2023-03-14T04:56:50;2.00;;;0.70;;
22160;SDS011;49035;48.812;11.762;2023-03-14T04:59:16;0.50;;;0.50;;
22160;SDS011;49035;48.812;11.762;2023-03-14T05:01:41;0.90;;;0.60;;
22160;SDS011;49035;48.812;11.762;2023-03-14T05:04:07;0.73;;;0.73;;
22160;SDS011;49035;48.812;11.762;2023-03-14T05:06:32;0.93;;;0.80;;
22160;SDS011;49035;48.812;11.762;2023-03-14T05:08:58;0.70;;;0.70;;
22160;SDS011;49035;48.812;11.762;2023-03-14T05:11:23;0.80;;;0.80;;
22160;SDS011;49035;48.812;11.762;2023-03-14T05:13:49;0.90;;;0.80;;
22160;SDS011;49035;48.812;11.762;2023-03-14T05:16:14;0.83;;;0.83;;
22160;SDS011;49035;48.812;11.762;2023-03-14T05:18:40;1.90;;;1.00;;
22160;SDS011;49035;48.812;11.762;2023-03-14T05:21:05;1.10;;;1.00;;
22160;SDS011;49035;48.812;11.762;2023-03-14T05:23:31;1.63;;;1.00;;
22160;SDS011;49035;48.812;11.762;2023-03-14T05:25:57;1.70;;;1.00;;
22160;SDS011;49035;48.812;11.762;2023-03-14T05:28:22;1.87;;;0.90;;
22160;SDS011;49035;48.812;11.762;2023-03-14T05:30:48;0.70;;;0.70;;
22160;SDS011;49035;48.812;11.762;2023-03-14T05:33:13;2.37;;;0.80;;
22160;SDS011;49035;48.812;11.762;2023-03-14T05:35:39;0.80;;;0.80;;
22160;SDS011;49035;48.812;11.762;2023-03-14T05:38:04;1.10;;;1.00;;
22160;SDS011;49035;48.812;11.762;2023-03-14T05:40:30;1.53;;;0.80;;
22160;SDS011;49035;48.812;11.762;2023-03-14T05:42:56;1.27;;;0.97;;
22160;SDS011;49035;48.812;11.762;2023-03-14T05:45:21;0.63;;;0.63;;
22160;SDS011;49035;48.812;11.762;2023-03-14T05:47:47;1.47;;;0.97;;
22160;SDS011;49035;48.812;11.762;2023-03-14T05:50:12;0.50;;;0.50;;
22160;SDS011;49035;48.812;11.762;2023-03-14T05:52:38;1.17;;;1.00;;
22160;SDS011;49035;48.812;11.762;2023-03-14T05:55:03;0.70;;;0.60;;
22160;SDS011;49035;48.812;11.762;2023-03-14T05:57:30;2.47;;;0.80;;
22160;SDS011;49035;48.812;11.762;2023-03-14T05:59:55;0.73;;;0.60;;
22160;SDS011;49035;48.812;11.762;2023-03-14T06:02:21;3.40;;;0.60;;
22160;SDS011;49035;48.812;11.762;2023-03-14T06:04:46;0.50;;;0.50;;
22160;SDS011;49035;48.812;11.762;2023-03-14T06:07:12;0.50;;;0.50;;
22160;SDS011;49035;48.812;11.762;2023-03-14T06:09:37;0.47;;;0.47;;
22160;SDS011;49035;48.812;11.762;2023-03-14T06:12:04;0.60;;;0.60;;
22160;SDS011;49035;48.812;11.762;2023-03-14T06:14:30;0.70;;;0.70;;
22160;SDS011;49035;48.812;11.762;2023-03-14T06:16:56;1.60;;;0.40;;
22160;SDS011;49035;48.812;11.762;2023-03-14T06:19:23;0.80;;;0.60;;
22160;SDS011;49035;48.812;11.762;2023-03-14T06:21:49;0.40;;;0.40;;
22160;SDS011;49035;48.812;11.762;2023-03-14T06:24:15;0.50;;;0.50;;
22160;SDS011;49035;48.812;11.762;2023-03-14T06:26:41;0.73;;;0.50;;
22160;SDS011;49035;48.812;11.762;2023-03-14T06:29:06;0.63;;;0.63;;
22160;SDS011;49035;48.812;11.762;2023-03-14T06:31:32;1.30;;;0.70;;
22160;SDS011;49035;48.812;11.762;2023-03-14T06:33:58;1.00;;;0.90;;
22160;SDS011;49035;48.812;11.762;2023-03-14T06:36:23;1.10;;;1.03;;
22160;SDS011;49035;48.812;11.762;2023-03-14T06:38:49;1.87;;;1.40;;
22160;SDS011;49035;48.812;11.762;2023-03-14T06:41:15;1.50;;;1.40;;
22160;SDS011;49035;48.812;11.762;2023-03-14T06:43:41;1.77;;;1.30;;
22160;SDS011;49035;48.812;11.762;2023-03-14T06:46:07;3.17;;;1.87;;
22160;SDS011;49035;48.812;11.762;2023-03-14T06:48:32;1.60;;;1.30;;
22160;SDS011;49035;48.812;11.762;2023-03-14T06:50:58;3.20;;;1.60;;
22160;SDS011;49035;48.812;11.762;2023-03-14T06:53:23;1.50;;;1.30;;
22160;SDS011;49035;48.812;11.762;2023-03-14T06:55:49;1.33;;;1.23;;
22160;SDS011;49035;48.812;11.762;2023-03-14T06:58:15;1.00;;;0.90;;
22160;SDS011;49035;48.812;11.762;2023-03-14T07:00:40;1.10;;;1.00;;
22160;SDS011;49035;48.812;11.762;2023-03-14T07:03:06;0.97;;;0.97;;
22160;SDS011;49035;48.812;11.762;2023-03-14T07:05:32;1.93;;;0.77;;
22160;SDS011;49035;48.812;11.762;2023-03-14T07:07:57;2.93;;;0.73;;
22160;SDS011;49035;48.812;11.762;2023-03-14T07:10:23;0.60;;;0.60;;
22160;SDS011;49035;48.812;11.762;2023-03-14T07:12:48;1.73;;;0.80;;
22160;SDS011;49035;48.812;11.762;2023-03-14T07:15:14;2.50;;;0.80;;
22160;SDS011;49035;48.812;11.762;2023-03-14T07:17:40;0.60;;;0.60;;
22160;SDS011;49035;48.812;11.762;2023-03-14T07:20:06;0.57;;;0.53;;
22160;SDS011;49035;48.812;11.762;2023-03-14T07:22:32;0.60;;;0.60;;
22160;SDS011;49035;48.812;11.762;2023-03-14T07:24:58;0.77;;;0.60;;
22160;SDS011;49035;48.812;11.762;2023-03-14T07:27:23;1.02;;;0.60;;
22160;SDS011;49035;48.812;11.762;2023-03-14T07:29:49;0.70;;;0.70;;
22160;SDS011;49035;48.812;11.762;2023-03-14T07:32:15;1.57;;;0.63;;
22160;SDS011;49035;48.812;11.762;2023-03-14T07:34:41;2.75;;;0.65;;
22160;SDS011;49035;48.812;11.762;2023-03-14T07:37:06;1.80;;;0.50;;
22160;SDS011;49035;48.812;11.762;2023-03-14T07:39:32;1.00;;;0.40;;
22160;SDS011;49035;48.812;11.762;2023-03-14T07:41:58;1.50;;;0.63;;
22160;SDS011;49035;48.812;11.762;2023-03-14T07:44:23;0.60;;;0.50;;
22160;SDS011;49035;48.812;11.762;2023-03-14T07:46:49;1.48;;;0.80;;
22160;SDS011;49035;48.812;11.762;2023-03-14T07:49:15;0.60;;;0.60;;
22160;SDS011;49035;48.812;11.762;2023-03-14T07:51:40;0.60;;;0.60;;
22160;SDS011;49035;48.812;11.762;2023-03-14T07:54:06;0.45;;;0.45;;
22160;SDS011;49035;48.812;11.762;2023-03-14T07:56:32;0.52;;;0.52;;
22160;SDS011;49035;48.812;11.762;2023-03-14T07:58:58;0.57;;;0.50;;
22160;SDS011;49035;48.812;11.762;2023-03-14T08:01:23;0.57;;;0.55;;
22160;SDS011;49035;48.812;11.762;2023-03-14T08:03:49;0.75;;;0.55;;
22160;SDS011;49035;48.812;11.762;2023-03-14T08:06:15;0.75;;;0.75;;
22160;SDS011;49035;48.812;11.762;2023-03-14T08:08:40;0.82;;;0.70;;
22160;SDS011;49035;48.812;11.762;2023-03-14T08:11:07;0.98;;;0.60;;
22160;SDS011;49035;48.812;11.762;2023-03-14T08:13:37;2.50;;;0.80;;
22160;SDS011;49035;48.812;11.762;2023-03-14T08:16:03;0.60;;;0.60;;
22160;SDS011;49035;48.812;11.762;2023-03-14T08:18:29;2.50;;;0.70;;
22160;SDS011;49035;48.812;11.762;2023-03-14T08:20:55;0.50;;;0.50;;
22160;SDS011;49035;48.812;11.762;2023-03-14T08:23:21;1.10;;;0.50;;
22160;SDS011;49035;48.812;11.762;2023-03-14T08:25:50;0.98;;;0.60;;
22160;SDS011;49035;48.812;11.762;2023-03-14T08:28:17;1.13;;;0.65;;
22160;SDS011;49035;48.812;11.762;2023-03-14T08:30:42;1.15;;;0.63;;
22160;SDS011;49035;48.812;11.762;2023-03-14T08:33:08;1.38;;;0.60;;
22160;SDS011;49035;48.812;11.762;2023-03-14T08:35:33;1.05;;;0.60;;
22160;SDS011;49035;48.812;11.762;2023-03-14T08:37:59;0.88;;;0.60;;
22160;SDS011;49035;48.812;11.762;2023-03-14T08:40:25;0.88;;;0.50;;
22160;SDS011;49035;48.812;11.762;2023-03-14T08:42:50;1.02;;;0.50;;
22160;SDS011;49035;48.812;11.762;2023-03-14T08:45:16;0.60;;;0.40;;
22160;SDS011;49035;48.812;11.762;2023-03-14T08:47:42;1.60;;;0.60;;
22160;SDS011;49035;48.812;11.762;2023-03-14T08:50:09;2.88;;;0.50;;
22160;SDS011;49035;48.812;11.762;2023-03-14T08:52:35;2.50;;;0.57;;
22160;SDS011;49035;48.812;11.762;2023-03-14T08:55:02;0.50;;;0.50;;
22160;SDS011;49035;48.812;11.762;2023-03-14T08:57:29;2.75;;;0.50;;
22160;SDS011;49035;48.812;11.762;2023-03-14T08:59:55;1.85;;;0.57;;
22160;SDS011;49035;48.812;11.762;2023-03-14T09:02:22;1.73;;;0.40;;
22160;SDS011;49035;48.812;11.762;2023-03-14T09:04:52;0.60;;;0.50;;
22160;SDS011;49035;48.812;11.762;2023-03-14T09:07:18;1.35;;;0.55;;
22160;SDS011;49035;48.812;11.762;2023-03-14T09:09:44;1.33;;;0.57;;
22160;SDS011;49035;48.812;11.762;2023-03-14T09:12:10;0.98;;;0.63;;
22160;SDS011;49035;48.812;11.762;2023-03-14T09:14:36;0.50;;;0.50;;
22160;SDS011;49035;48.812;11.762;2023-03-14T09:17:02;0.65;;;0.55;;
22160;SDS011;49035;48.812;11.762;2023-03-14T09:19:28;0.70;;;0.50;;
22160;SDS011;49035;48.812;11.762;2023-03-14T09:21:54;0.40;;;0.40;;
22160;SDS011;49035;48.812;11.762;2023-03-14T09:24:19;0.50;;;0.50;;
22160;SDS011;49035;48.812;11.762;2023-03-14T09:26:45;0.55;;;0.50;;
22160;SDS011;49035;48.812;11.762;2023-03-14T09:29:11;6.40;;;0.80;;
22160;SDS011;49035;48.812;11.762;2023-03-14T09:31:36;0.90;;;0.50;;
22160;SDS011;49035;48.812;11.762;2023-03-14T09:34:02;0.65;;;0.50;;
22160;SDS011;49035;48.812;11.762;2023-03-14T09:36:28;1.13;;;0.50;;
22160;SDS011;49035;48.812;11.762;2023-03-14T09:38:53;2.42;;;0.40;;
22160;SDS011;49035;48.812;11.762;2023-03-14T09:41:29;0.85;;;0.55;;
22160;SDS011;49035;48.812;11.762;2023-03-14T09:44:05;0.60;;;0.60;;
22160;SDS011;49035;48.812;11.762;2023-03-14T09:46:37;0.50;;;0.50;;
22160;SDS011;49035;48.812;11.762;2023-03-14T09:49:08;1.02;;;0.43;;
22160;SDS011;49035;48.812;11.762;2023-03-14T09:51:42;1.10;;;0.55;;
22160;SDS011;49035;48.812;11.762;2023-03-14T09:54:18;0.70;;;0.50;;
22160;SDS011;49035;48.812;11.762;2023-03-14T09:57:16;0.50;;;0.50;;
22160;SDS011;49035;48.812;11.762;2023-03-14T09:59:44;2.83;;;0.63;;
22160;SDS011;49035;48.812;11.762;2023-03-14T10:02:15;0.55;;;0.40;;
22160;SDS011;49035;48.812;11.762;2023-03-14T10:04:46;1.67;;;0.50;;
22160;SDS011;49035;48.812;11.762;2023-03-14T10:07:14;1.45;;;0.40;;
22160;SDS011;49035;48.812;11.762;2023-03-14T10:09:44;0.90;;;0.82;;
22160;SDS011;49035;48.812;11.762;2023-03-14T10:12:12;0.50;;;0.40;;
22160;SDS011;49035;48.812;11.762;2023-03-14T10:14:44;1.48;;;0.63;;
22160;SDS011;49035;48.812;11.762;2023-03-14T10:17:19;2.00;;;0.40;;
22160;SDS011;49035;48.812;11.762;2023-03-14T10:22:18;1.83;;;1.05;;
22160;SDS011;49035;48.812;11.762;2023-03-14T10:24:51;0.85;;;0.57;;
22160;SDS011;49035;48.812;11.762;2023-03-14T10:27:29;2.72;;;0.63;;
22160;SDS011;49035;48.812;11.762;2023-03-14T10:29:58;1.40;;;0.65;;
22160;SDS011;49035;48.812;11.762;2023-03-14T10:32:31;0.55;;;0.40;;
22160;SDS011;49035;48.812;11.762;2023-03-14T10:37:48;0.50;;;0.40;;
22160;SDS011;49035;48.812;11.762;2023-03-14T10:40:16;0.50;;;0.50;;
22160;SDS011;49035;48.812;11.762;2023-03-14T10:42:44;1.25;;;0.50;;
22160;SDS011;49035;48.812;11.762;2023-03-14T10:45:29;0.50;;;0.40;;
22160;SDS011;49035;48.812;11.762;2023-03-14T10:50:47;1.65;;;0.50;;
22160;SDS011;49035;48.812;11.762;2023-03-14T10:53:21;0.47;;;0.40;;
22160;SDS011;49035;48.812;11.762;2023-03-14T10:55:47;0.82;;;0.45;;
22160;SDS011;49035;48.812;11.762;2023-03-14T10:58:57;0.75;;;0.40;;
22160;SDS011;49035;48.812;11.762;2023-03-14T11:03:59;2.45;;;0.50;;
22160;SDS011;49035;48.812;11.762;2023-03-14T11:06:36;1.17;;;0.47;;
22160;SDS011;49035;48.812;11.762;2023-03-14T11:09:17;0.30;;;0.30;;
22160;SDS011;49035;48.812;11.762;2023-03-14T11:11:48;0.73;;;0.43;;
22160;SDS011;49035;48.812;11.762;2023-03-14T11:14:20;0.63;;;0.60;;
22160;SDS011;49035;48.812;11.762;2023-03-14T11:16:57;3.42;;;0.40;;
22160;SDS011;49035;48.812;11.762;2023-03-14T11:22:27;1.67;;;0.60;;
22160;SDS011;49035;48.812;11.762;2023-03-14T11:27:23;0.93;;;0.52;;
22160;SDS011;49035;48.812;11.762;2023-03-14T11:30:19;1.33;;;0.40;;
22160;SDS011;49035;48.812;11.762;2023-03-14T11:35:45;1.08;;;0.45;;
22160;SDS011;49035;48.812;11.762;2023-03-14T11:38:38;0.73;;;0.43;;
22160;SDS011;49035;48.812;11.762;2023-03-14T11:41:12;0.50;;;0.35;;
22160;SDS011;49035;48.812;11.762;2023-03-14T11:43:57;2.30;;;0.50;;
22160;SDS011;49035;48.812;11.762;2023-03-14T11:46:28;2.35;;;0.40;;
22160;SDS011;49035;48.812;11.762;2023-03-14T11:52:13;1.20;;;0.50;;
22160;SDS011;49035;48.812;11.762;2023-03-14T11:55:27;2.00;;;0.50;;
22160;SDS011;49035;48.812;11.762;2023-03-14T11:57:35;0.80;;;0.38;;
22160;SDS011;49035;48.812;11.762;2023-03-14T12:06:01;0.50;;;0.50;;
22160;SDS011;49035;48.812;11.762;2023-03-14T12:13:54;0.50;;;0.50;;
22160;SDS011;49035;48.812;11.762;2023-03-14T12:18:48;2.05;;;0.40;;
22160;SDS011;49035;48.812;11.762;2023-03-14T12:21:14;0.75;;;0.38;;
22160;SDS011;49035;48.812;11.762;2023-03-14T12:23:53;1.50;;;0.50;;
22160;SDS011;49035;48.812;11.762;2023-03-14T12:26:25;0.68;;;0.45;;
22160;SDS011;49035;48.812;11.762;2023-03-14T12:29:14;0.45;;;0.30;;
22160;SDS011;49035;48.812;11.762;2023-03-14T12:31:42;1.00;;;0.47;;
22160;SDS011;49035;48.812;11.762;2023-03-14T12:42:03;0.40;;;0.40;;
22160;SDS011;49035;48.812;11.762;2023-03-14T12:44:38;0.30;;;0.30;;
22160;SDS011;49035;48.812;11.762;2023-03-14T12:49:43;1.58;;;0.43;;
22160;SDS011;49035;48.812;11.762;2023-03-14T12:52:23;0.50;;;0.40;;
22160;SDS011;49035;48.812;11.762;2023-03-14T12:57:58;1.35;;;0.50;;
22160;SDS011;49035;48.812;11.762;2023-03-14T13:00:38;0.50;;;0.50;;
22160;SDS011;49035;48.812;11.762;2023-03-14T13:03:15;0.93;;;0.63;;
22160;SDS011;49035;48.812;11.762;2023-03-14T13:05:57;0.63;;;0.40;;
22160;SDS011;49035;48.812;11.762;2023-03-14T13:11:16;0.30;;;0.30;;
22160;SDS011;49035;48.812;11.762;2023-03-14T13:13:48;1.63;;;0.60;;
22160;SDS011;49035;48.812;11.762;2023-03-14T13:16:18;0.90;;;0.40;;
22160;SDS011;49035;48.812;11.762;2023-03-14T13:18:46;0.85;;;0.50;;
22160;SDS011;49035;48.812;11.762;2023-03-14T13:21:35;0.40;;;0.40;;
22160;SDS011;49035;48.812;11.762;2023-03-14T13:26:36;0.40;;;0.35;;
22160;SDS011;49035;48.812;11.762;2023-03-14T13:29:18;1.77;;;0.40;;
22160;SDS011;49035;48.812;11.762;2023-03-14T13:31:45;0.50;;;0.50;;
22160;SDS011;49035;48.812;11.762;2023-03-14T13:34:11;1.60;;;0.50;;
22160;SDS011;49035;48.812;11.762;2023-03-14T13:36:37;1.27;;;0.35;;
22160;SDS011;49035;48.812;11.762;2023-03-14T13:39:04;0.57;;;0.50;;
22160;SDS011;49035;48.812;11.762;2023-03-14T13:41:37;0.55;;;0.50;;
22160;SDS011;49035;48.812;11.762;2023-03-14T13:44:05;1.08;;;0.63;;
22160;SDS011;49035;48.812;11.762;2023-03-14T13:46:34;0.57;;;0.57;;
22160;SDS011;49035;48.812;11.762;2023-03-14T13:49:04;0.60;;;0.60;;
22160;SDS011;49035;48.812;11.762;2023-03-14T13:51:34;0.47;;;0.47;;
22160;SDS011;49035;48.812;11.762;2023-03-14T13:54:15;1.02;;;0.60;;
22160;SDS011;49035;48.812;11.762;2023-03-14T13:56:42;4.07;;;0.82;;
22160;SDS011;49035;48.812;11.762;2023-03-14T13:59:21;0.93;;;0.60;;
22160;SDS011;49035;48.812;11.762;2023-03-14T14:01:52;1.02;;;0.60;;
22160;SDS011;49035;48.812;11.762;2023-03-14T14:04:19;1.27;;;0.90;;
22160;SDS011;49035;48.812;11.762;2023-03-14T14:06:57;5.07;;;0.90;;
22160;SDS011;49035;48.812;11.762;2023-03-14T14:09:35;0.50;;;0.50;;
22160;SDS011;49035;48.812;11.762;2023-03-14T14:12:16;1.70;;;0.90;;
22160;SDS011;49035;48.812;11.762;2023-03-14T14:14:55;0.50;;;0.50;;
22160;SDS011;49035;48.812;11.762;2023-03-14T14:17:32;0.60;;;0.60;;
22160;SDS011;49035;48.812;11.762;2023-03-14T14:20:03;0.60;;;0.60;;
22160;SDS011;49035;48.812;11.762;2023-03-14T14:22:32;2.15;;;0.60;;
22160;SDS011;49035;48.812;11.762;2023-03-14T14:24:58;1.55;;;0.90;;
22160;SDS011;49035;48.812;11.762;2023-03-14T14:32:48;1.15;;;0.63;;
22160;SDS011;49035;48.812;11.762;2023-03-14T14:35:25;0.90;;;0.77;;
22160;SDS011;49035;48.812;11.762;2023-03-14T14:37:56;0.60;;;0.60;;
22160;SDS011;49035;48.812;11.762;2023-03-14T14:40:23;0.40;;;0.40;;
22160;SDS011;49035;48.812;11.762;2023-03-14T14:42:50;0.40;;;0.40;;
22160;SDS011;49035;48.812;11.762;2023-03-14T14:45:18;0.50;;;0.50;;
22160;SDS011;49035;48.812;11.762;2023-03-14T14:50:29;0.77;;;0.70;;
22160;SDS011;49035;48.812;11.762;2023-03-14T14:53:02;0.50;;;0.50;;
22160;SDS011;49035;48.812;11.762;2023-03-14T14:55:45;1.97;;;0.50;;
22160;SDS011;49035;48.812;11.762;2023-03-14T14:58:23;0.52;;;0.47;;
22160;SDS011;49035;48.812;11.762;2023-03-14T15:00:58;0.67;;;0.60;;
22160;SDS011;49035;48.812;11.762;2023-03-14T15:03:30;0.50;;;0.50;;
22160;SDS011;49035;48.812;11.762;2023-03-14T15:05:58;0.67;;;0.60;;
22160;SDS011;49035;48.812;11.762;2023-03-14T15:08:24;0.50;;;0.40;;
22160;SDS011;49035;48.812;11.762;2023-03-14T15:10:51;0.63;;;0.60;;
22160;SDS011;49035;48.812;11.762;2023-03-14T15:13:17;0.67;;;0.60;;
22160;SDS011;49035;48.812;11.762;2023-03-14T15:15:42;1.27;;;0.50;;
22160;SDS011;49035;48.812;11.762;2023-03-14T15:18:13;0.90;;;0.53;;
22160;SDS011;49035;48.812;11.762;2023-03-14T15:20:40;0.70;;;0.70;;
22160;SDS011;49035;48.812;11.762;2023-03-14T15:23:17;0.77;;;0.67;;
22160;SDS011;49035;48.812;11.762;2023-03-14T15:25:44;0.97;;;0.70;;
22160;SDS011;49035;48.812;11.762;2023-03-14T15:28:22;0.83;;;0.70;;
22160;SDS011;49035;48.812;11.762;2023-03-14T15:30:50;2.33;;;0.80;;
22160;SDS011;49035;48.812;11.762;2023-03-14T15:33:18;1.53;;;0.70;;
22160;SDS011;49035;48.812;11.762;2023-03-14T15:35:44;0.60;;;0.60;;
22160;SDS011;49035;48.812;11.762;2023-03-14T15:38:11;1.38;;;0.60;;
22160;SDS011;49035;48.812;11.762;2023-03-14T15:40:38;0.70;;;0.70;;
22160;SDS011;49035;48.812;11.762;2023-03-14T15:43:03;2.53;;;0.90;;
22160;SDS011;49035;48.812;11.762;2023-03-14T15:45:29;2.15;;;0.70;;
22160;SDS011;49035;48.812;11.762;2023-03-14T15:47:55;1.17;;;0.70;;
22160;SDS011;49035;48.812;11.762;2023-03-14T15:50:20;0.70;;;0.70;;
22160;SDS011;49035;48.812;11.762;2023-03-14T15:52:47;1.17;;;0.80;;
22160;SDS011;49035;48.812;11.762;2023-03-14T15:55:13;1.70;;;0.97;;
22160;SDS011;49035;48.812;11.762;2023-03-14T15:57:40;2.20;;;1.17;;
22160;SDS011;49035;48.812;11.762;2023-03-14T16:00:09;2.77;;;1.30;;